createdAt,value
2022-12-26T00:02:01.986Z,14.20
2022-12-26T00:04:51.462Z,14.20
2022-12-26T00:07:24.918Z,14.20
2022-12-26T00:09:54.068Z,14.20
2022-12-26T00:12:20.675Z,14.20
2022-12-26T00:14:50.340Z,14.20
2022-12-26T00:17:16.989Z,14.20
2022-12-26T00:19:47.904Z,14.20
2022-12-26T00:22:22.379Z,14.20
2022-12-26T00:24:49.017Z,14.10
2022-12-26T00:27:20.034Z,14.20
2022-12-26T00:29:49.873Z,14.10
2022-12-26T00:32:18.819Z,14.10
2022-12-26T00:34:45.617Z,14.10
2022-12-26T00:37:13.819Z,14.10
2022-12-26T00:39:40.493Z,14.00
2022-12-26T00:42:07.115Z,14.10
2022-12-26T00:44:36.220Z,14.00
2022-12-26T00:47:03.255Z,14.00
2022-12-26T00:50:13.363Z,14.00
2022-12-26T00:52:19.842Z,14.00
2022-12-26T00:54:47.664Z,14.00
2022-12-26T00:57:14.320Z,13.90
2022-12-26T00:59:44.349Z,13.90
2022-12-26T01:02:32.117Z,13.90
2022-12-26T01:05:03.319Z,14.00
2022-12-26T01:07:35.937Z,13.90
2022-12-26T01:10:23.367Z,13.90
2022-12-26T01:12:52.242Z,13.90
2022-12-26T01:15:24.006Z,13.90
2022-12-26T01:17:56.281Z,13.90
2022-12-26T01:20:23.114Z,13.90
2022-12-26T01:22:51.009Z,13.90
2022-12-26T01:25:17.718Z,13.80
2022-12-26T01:27:49.282Z,13.90
2022-12-26T01:30:20.228Z,13.80
2022-12-26T01:32:47.050Z,13.80
2022-12-26T01:35:13.743Z,13.80
2022-12-26T01:37:40.474Z,13.80
2022-12-26T01:40:07.723Z,13.80
2022-12-26T01:42:40.219Z,13.80
2022-12-26T01:45:24.936Z,13.80
2022-12-26T01:48:01.111Z,13.80
2022-12-26T01:50:35.704Z,13.80
2022-12-26T01:53:14.319Z,13.90
2022-12-26T01:55:43.251Z,13.80
2022-12-26T01:58:16.524Z,13.80
2022-12-26T02:00:45.870Z,13.80
2022-12-26T02:03:34.894Z,13.80
2022-12-26T02:06:02.034Z,13.80
2022-12-26T02:08:34.699Z,13.90
2022-12-26T02:11:10.553Z,13.90
2022-12-26T02:13:45.704Z,13.90
2022-12-26T02:16:18.141Z,13.90
2022-12-26T02:18:47.849Z,13.90
2022-12-26T02:21:40.001Z,13.90
2022-12-26T02:24:47.314Z,13.90
2022-12-26T02:27:50.085Z,13.90
2022-12-26T02:30:48.466Z,13.80
2022-12-26T02:33:21.961Z,13.80
2022-12-26T02:36:02.031Z,13.80
2022-12-26T02:39:45.587Z,13.80
2022-12-26T02:42:12.958Z,13.80
2022-12-26T02:45:15.903Z,13.80
2022-12-26T02:48:04.152Z,13.80
2022-12-26T02:51:07.930Z,13.80
2022-12-26T02:54:09.583Z,13.80
2022-12-26T02:57:00.404Z,13.70
2022-12-26T03:00:03.007Z,13.70
2022-12-26T03:03:11.523Z,13.70
2022-12-26T03:06:08.837Z,13.70
2022-12-26T03:09:44.269Z,13.60
2022-12-26T03:12:47.355Z,13.60
2022-12-26T03:15:19.052Z,13.60
2022-12-26T03:17:55.895Z,13.60
2022-12-26T03:20:29.432Z,13.60
2022-12-26T03:23:11.055Z,13.60
2022-12-26T03:26:15.667Z,13.50
2022-12-26T03:28:47.738Z,13.60
2022-12-26T03:31:15.825Z,13.50
2022-12-26T03:34:05.461Z,13.50
2022-12-26T03:37:15.413Z,13.50
2022-12-26T03:40:26.564Z,13.50
2022-12-26T03:43:52.218Z,13.50
2022-12-26T03:46:44.879Z,13.40
2022-12-26T03:49:51.264Z,13.50
2022-12-26T03:52:55.241Z,13.40
2022-12-26T03:55:54.728Z,13.40
2022-12-26T03:58:53.983Z,13.30
2022-12-26T04:01:46.266Z,13.30
2022-12-26T04:04:34.094Z,13.20
2022-12-26T04:07:33.221Z,13.20
2022-12-26T04:10:27.045Z,13.20
2022-12-26T04:13:14.889Z,13.20
2022-12-26T04:16:09.426Z,13.10
2022-12-26T04:19:02.485Z,13.10
2022-12-26T04:22:01.519Z,13.10
2022-12-26T04:24:53.058Z,13.10
2022-12-26T04:27:45.415Z,13.10
2022-12-26T04:30:32.913Z,13.10
2022-12-26T04:33:28.996Z,13.10
2022-12-26T04:36:26.961Z,13.10
2022-12-26T04:39:23.084Z,13.10
2022-12-26T04:42:10.061Z,13.10
2022-12-26T04:44:38.664Z,13.10
2022-12-26T04:47:10.755Z,13.10
2022-12-26T04:50:03.091Z,13.10
2022-12-26T04:52:50.273Z,13.10
2022-12-26T04:55:24.143Z,13.10
2022-12-26T04:57:53.855Z,13.10
2022-12-26T05:00:24.816Z,13.10
2022-12-26T05:03:16.230Z,13.10
2022-12-26T05:06:08.595Z,13.10
2022-12-26T05:09:01.243Z,13.10
2022-12-26T05:11:29.389Z,13.10
2022-12-26T05:14:01.215Z,13.10
2022-12-26T05:16:54.669Z,13.10
2022-12-26T05:19:40.993Z,13.10
2022-12-26T05:22:30.532Z,13.10
2022-12-26T05:25:16.049Z,13.10
2022-12-26T05:28:02.861Z,13.20
2022-12-26T05:30:32.677Z,13.10
2022-12-26T05:33:18.004Z,13.10
2022-12-26T05:35:45.904Z,13.10
2022-12-26T05:38:17.638Z,13.10
2022-12-26T05:40:44.494Z,13.10
2022-12-26T05:43:20.826Z,13.10
2022-12-26T05:45:52.649Z,13.10
2022-12-26T05:48:20.508Z,13.10
2022-12-26T05:50:50.930Z,13.10
2022-12-26T05:53:18.744Z,13.10
2022-12-26T05:55:46.553Z,13.10
2022-12-26T05:58:15.528Z,13.10
2022-12-26T06:00:47.776Z,13.10
2022-12-26T06:03:14.558Z,13.20
2022-12-26T06:05:41.357Z,13.20
2022-12-26T06:08:07.978Z,13.20
2022-12-26T06:10:37.299Z,13.20
2022-12-26T06:13:06.304Z,13.20
2022-12-26T06:15:32.988Z,13.20
2022-12-26T06:17:59.616Z,13.20
2022-12-26T06:20:26.232Z,13.20
2022-12-26T06:22:55.181Z,13.20
2022-12-26T06:25:21.821Z,13.20
2022-12-26T06:27:50.693Z,13.20
2022-12-26T06:30:19.582Z,13.20
2022-12-26T06:32:46.701Z,13.20
2022-12-26T06:35:18.421Z,13.20
2022-12-26T06:37:45.063Z,13.20
2022-12-26T06:40:11.769Z,13.20
2022-12-26T06:42:38.394Z,13.20
2022-12-26T06:45:05.504Z,13.20
2022-12-26T06:47:32.116Z,13.20
2022-12-26T06:49:59.162Z,13.20
2022-12-26T06:52:27.950Z,13.20
2022-12-26T06:54:59.048Z,13.20
2022-12-26T06:57:25.725Z,13.20
2022-12-26T06:59:55.947Z,13.10
2022-12-26T07:02:22.655Z,13.10
2022-12-26T07:04:49.469Z,13.10
2022-12-26T07:07:20.950Z,13.10
2022-12-26T07:09:53.219Z,13.10
2022-12-26T07:12:21.864Z,13.10
2022-12-26T07:14:48.870Z,13.10
2022-12-26T07:17:16.665Z,13.10
2022-12-26T07:19:43.473Z,13.10
2022-12-26T07:22:10.147Z,13.10
2022-12-26T07:24:40.523Z,13.10
2022-12-26T07:27:11.942Z,13.10
2022-12-26T07:29:38.599Z,13.10
2022-12-26T07:32:06.642Z,13.20
2022-12-26T07:34:34.499Z,13.20
2022-12-26T07:37:03.645Z,13.20
2022-12-26T07:39:30.489Z,13.20
2022-12-26T07:42:00.233Z,13.20
2022-12-26T07:44:28.720Z,13.20
2022-12-26T07:46:56.609Z,13.20
2022-12-26T07:49:23.825Z,13.20
2022-12-26T07:51:54.756Z,13.20
2022-12-26T07:54:24.038Z,13.20
2022-12-26T07:56:50.707Z,13.30
2022-12-26T07:59:17.937Z,13.30
2022-12-26T08:01:44.987Z,13.30
2022-12-26T08:04:12.719Z,13.30
2022-12-26T08:06:39.668Z,13.30
2022-12-26T08:09:15.292Z,13.30
2022-12-26T08:11:44.930Z,13.30
2022-12-26T08:14:12.940Z,13.20
2022-12-26T08:16:39.700Z,13.20
2022-12-26T08:19:06.412Z,13.20
2022-12-26T08:21:33.034Z,13.20
2022-12-26T08:23:59.759Z,13.20
2022-12-26T08:26:28.836Z,13.20
2022-12-26T08:28:56.428Z,13.10
2022-12-26T08:33:57.507Z,13.10
2022-12-26T08:36:24.730Z,13.10
2022-12-26T08:38:51.396Z,13.10
2022-12-26T08:41:18.054Z,13.20
2022-12-26T08:44:26.452Z,13.20
2022-12-26T08:46:36.777Z,13.20
2022-12-26T08:49:03.424Z,13.20
2022-12-26T08:51:30.492Z,13.20
2022-12-26T08:53:57.089Z,13.20
2022-12-26T08:56:25.829Z,13.30
2022-12-26T08:58:53.426Z,13.30
2022-12-26T09:01:23.221Z,13.30
2022-12-26T09:03:54.401Z,13.30
2022-12-26T09:06:21.811Z,13.30
2022-12-26T09:08:48.526Z,13.30
2022-12-26T09:11:18.702Z,13.30
2022-12-26T09:13:46.458Z,13.30
2022-12-26T09:16:16.412Z,13.30
2022-12-26T09:18:45.053Z,13.30
2022-12-26T09:21:14.142Z,13.20
2022-12-26T09:23:41.641Z,13.20
2022-12-26T09:26:18.408Z,13.20
2022-12-26T09:28:46.951Z,13.20
2022-12-26T09:31:16.671Z,13.20
2022-12-26T09:33:43.585Z,13.20
2022-12-26T09:36:19.783Z,13.30
2022-12-26T09:38:47.719Z,13.30
2022-12-26T09:41:21.210Z,13.30
2022-12-26T09:44:08.821Z,13.40
2022-12-26T09:47:10.201Z,13.40
2022-12-26T09:49:47.533Z,13.40
2022-12-26T09:52:22.417Z,13.40
2022-12-26T09:54:58.195Z,13.40
2022-12-26T09:57:52.370Z,13.40
2022-12-26T10:00:25.383Z,13.40
2022-12-26T10:02:54.721Z,13.40
2022-12-26T10:05:31.227Z,13.40
2022-12-26T10:08:06.992Z,13.40
2022-12-26T10:10:47.560Z,13.50
2022-12-26T10:13:32.270Z,13.50
2022-12-26T10:16:11.754Z,13.50
2022-12-26T10:19:03.055Z,13.50
2022-12-26T10:21:53.872Z,13.50
2022-12-26T10:24:23.498Z,13.70
2022-12-26T10:27:02.386Z,13.70
2022-12-26T10:29:38.362Z,13.70
2022-12-26T10:32:16.879Z,13.70
2022-12-26T10:34:47.028Z,13.80
2022-12-26T10:37:20.956Z,13.80
2022-12-26T10:39:50.901Z,13.80
2022-12-26T10:42:36.573Z,13.90
2022-12-26T10:45:15.910Z,14.00
2022-12-26T10:47:46.611Z,14.10
2022-12-26T10:50:29.426Z,14.20
2022-12-26T10:52:58.391Z,14.20
2022-12-26T10:55:34.622Z,14.20
2022-12-26T10:58:23.324Z,14.30
2022-12-26T11:00:50.305Z,14.40
2022-12-26T11:03:20.021Z,14.40
2022-12-26T11:06:07.515Z,14.40
2022-12-26T11:08:43.179Z,14.50
2022-12-26T11:11:20.872Z,14.50
2022-12-26T11:14:03.025Z,14.50
2022-12-26T11:16:36.940Z,14.50
2022-12-26T11:19:06.044Z,14.50
2022-12-26T11:21:33.948Z,14.50
2022-12-26T11:24:09.833Z,14.40
2022-12-26T11:26:37.993Z,14.40
2022-12-26T11:29:21.971Z,14.30
2022-12-26T11:32:02.036Z,14.30
2022-12-26T11:34:37.529Z,14.20
2022-12-26T11:37:06.137Z,14.20
2022-12-26T11:39:37.992Z,14.20
2022-12-26T11:42:12.543Z,14.20
2022-12-26T11:44:42.389Z,14.20
2022-12-26T11:47:17.951Z,14.20
2022-12-26T11:50:11.437Z,14.20
2022-12-26T11:52:45.684Z,14.20
2022-12-26T11:55:33.495Z,14.20
2022-12-26T11:58:06.466Z,14.20
2022-12-26T12:00:35.301Z,14.20
2022-12-26T12:03:03.710Z,14.20
2022-12-26T12:05:52.124Z,14.10
2022-12-26T12:08:26.807Z,14.10
2022-12-26T12:11:04.187Z,14.10
2022-12-26T12:13:58.597Z,14.00
2022-12-26T12:16:31.322Z,14.00
2022-12-26T12:19:29.102Z,13.90
2022-12-26T12:22:23.364Z,13.90
2022-12-26T12:25:22.896Z,13.90
2022-12-26T12:28:04.621Z,14.00
2022-12-26T12:31:05.292Z,13.90
2022-12-26T12:33:51.588Z,13.90
2022-12-26T12:36:49.586Z,13.90
2022-12-26T12:39:39.439Z,13.90
2022-12-26T12:42:23.430Z,13.80
2022-12-26T12:45:02.577Z,13.80
2022-12-26T12:48:04.498Z,13.70
2022-12-26T12:50:42.555Z,13.60
2022-12-26T12:53:30.889Z,13.60
2022-12-26T12:56:42.134Z,13.50
2022-12-26T12:59:15.429Z,13.50
2022-12-26T13:01:50.805Z,13.50
2022-12-26T13:04:20.150Z,13.40
2022-12-26T13:06:51.917Z,13.40
2022-12-26T13:09:23.929Z,13.40
2022-12-26T13:12:00.440Z,13.40
2022-12-26T13:14:46.666Z,13.40
2022-12-26T13:17:22.191Z,13.40
2022-12-26T13:20:16.613Z,13.40
2022-12-26T13:23:07.964Z,13.40
2022-12-26T13:25:41.002Z,13.40
2022-12-26T13:28:15.818Z,13.30
2022-12-26T13:30:42.695Z,13.30
2022-12-26T13:33:14.686Z,13.20
2022-12-26T13:35:53.655Z,13.20
2022-12-26T13:38:24.531Z,13.10
2022-12-26T13:41:18.101Z,13.10
2022-12-26T13:44:04.574Z,13.00
2022-12-26T13:46:40.379Z,13.00
2022-12-26T13:49:36.290Z,12.90
2022-12-26T13:52:12.056Z,12.90
2022-12-26T13:55:07.360Z,12.80
2022-12-26T13:57:44.746Z,12.80
2022-12-26T14:00:19.090Z,12.80
2022-12-26T14:03:21.736Z,12.70
2022-12-26T14:06:07.573Z,12.70
2022-12-26T14:08:40.248Z,12.70
2022-12-26T14:11:35.177Z,12.70
2022-12-26T14:14:17.152Z,12.70
2022-12-26T14:17:11.348Z,12.70
2022-12-26T14:20:00.481Z,12.70
2022-12-26T14:23:02.452Z,12.60
2022-12-26T14:25:51.150Z,12.60
2022-12-26T14:28:31.166Z,12.60
2022-12-26T14:31:09.926Z,12.50
2022-12-26T14:34:00.585Z,12.40
2022-12-26T14:36:51.920Z,12.40
2022-12-26T14:39:46.977Z,12.30
2022-12-26T14:42:42.380Z,12.20
2022-12-26T14:45:32.271Z,12.20
2022-12-26T14:47:59.375Z,12.10
2022-12-26T14:50:32.222Z,12.10
2022-12-26T14:53:29.589Z,12.10
2022-12-26T14:56:18.019Z,12.10
2022-12-26T14:58:49.838Z,12.00
2022-12-26T15:01:17.681Z,12.00
2022-12-26T15:03:44.787Z,11.90
2022-12-26T15:06:19.634Z,11.90
2022-12-26T15:08:57.665Z,11.90
2022-12-26T15:12:06.045Z,11.80
2022-12-26T15:15:02.989Z,11.80
2022-12-26T15:18:04.746Z,11.80
2022-12-26T15:20:54.449Z,11.80
2022-12-26T15:23:42.301Z,11.70
2022-12-26T15:26:08.873Z,11.70
2022-12-26T15:29:11.105Z,11.60
2022-12-26T15:31:49.042Z,11.60
2022-12-26T15:34:43.656Z,11.50
2022-12-26T15:37:21.632Z,11.50
2022-12-26T15:39:56.355Z,11.40
2022-12-26T15:42:50.591Z,11.30
2022-12-26T15:45:41.966Z,11.30
2022-12-26T15:48:26.209Z,11.20
2022-12-26T15:51:23.186Z,11.10
2022-12-26T15:54:19.854Z,11.00
2022-12-26T15:57:19.363Z,11.00
2022-12-26T16:00:15.550Z,10.80
2022-12-26T16:03:05.514Z,10.80
2022-12-26T16:05:49.340Z,10.70
2022-12-26T16:08:19.140Z,10.60
2022-12-26T16:10:48.911Z,10.50
2022-12-26T16:13:25.397Z,10.40
2022-12-26T16:15:57.169Z,10.30
2022-12-26T16:18:30.558Z,10.30
2022-12-26T16:21:19.853Z,10.20
2022-12-26T16:23:48.577Z,10.10
2022-12-26T16:26:39.097Z,10.10
2022-12-26T16:29:06.278Z,10.00
2022-12-26T16:31:33.056Z,9.90
2022-12-26T16:34:00.474Z,9.80
2022-12-26T16:36:35.587Z,9.80
2022-12-26T16:39:08.725Z,9.70
2022-12-26T16:41:57.362Z,9.60
2022-12-26T16:44:44.315Z,9.60
2022-12-26T16:47:13.246Z,9.50
2022-12-26T16:49:43.234Z,9.50
2022-12-26T16:52:32.886Z,9.40
2022-12-26T16:55:22.225Z,9.40
2022-12-26T16:57:51.368Z,9.30
2022-12-26T17:00:20.034Z,9.30
2022-12-26T17:02:50.026Z,9.20
2022-12-26T17:05:22.169Z,9.20
2022-12-26T17:07:51.224Z,9.10
2022-12-26T17:10:21.641Z,9.10
2022-12-26T17:12:48.574Z,9.00
2022-12-26T17:15:27.087Z,9.00
2022-12-26T17:17:53.749Z,9.00
2022-12-26T17:20:23.360Z,9.00
2022-12-26T17:22:51.092Z,8.90
2022-12-26T17:25:17.680Z,8.90
2022-12-26T17:27:45.300Z,8.80
2022-12-26T17:30:30.540Z,8.80
2022-12-26T17:33:10.810Z,8.80
2022-12-26T17:36:21.575Z,8.80
2022-12-26T17:38:26.982Z,8.70
2022-12-26T17:41:00.632Z,8.70
2022-12-26T17:43:33.276Z,8.70
2022-12-26T17:46:02.910Z,8.70
2022-12-26T17:48:30.053Z,8.60
2022-12-26T17:50:59.491Z,8.60
2022-12-26T17:53:37.219Z,8.50
2022-12-26T17:56:10.655Z,8.50
2022-12-26T17:58:39.692Z,8.50
2022-12-26T18:01:10.015Z,8.50
2022-12-26T18:03:37.013Z,8.50
2022-12-26T18:06:04.204Z,8.50
2022-12-26T18:08:37.327Z,8.40
2022-12-26T18:11:07.766Z,8.50
2022-12-26T18:13:34.488Z,8.40
2022-12-26T18:16:01.306Z,8.30
2022-12-26T18:18:33.808Z,8.30
2022-12-26T18:21:06.760Z,8.30
2022-12-26T18:23:36.356Z,8.30
2022-12-26T18:26:11.320Z,8.30
2022-12-26T18:28:38.035Z,8.30
2022-12-26T18:31:07.179Z,8.30
2022-12-26T18:33:33.816Z,8.20
2022-12-26T18:36:07.894Z,8.20
2022-12-26T18:38:36.586Z,8.20
2022-12-26T18:41:03.254Z,8.20
2022-12-26T18:43:31.303Z,8.20
2022-12-26T18:46:01.256Z,8.10
2022-12-26T18:48:27.924Z,8.10
2022-12-26T18:50:54.682Z,8.10
2022-12-26T18:53:21.354Z,8.00
2022-12-26T18:55:49.230Z,8.00
2022-12-26T18:58:18.279Z,8.00
2022-12-26T19:00:47.109Z,8.00
2022-12-26T19:03:16.766Z,8.00
2022-12-26T19:05:52.355Z,8.00
2022-12-26T19:08:23.742Z,7.90
2022-12-26T19:10:50.398Z,7.90
2022-12-26T19:13:20.063Z,7.90
2022-12-26T19:15:49.685Z,7.90
2022-12-26T19:18:16.327Z,7.80
2022-12-26T19:20:46.415Z,7.80
2022-12-26T19:23:13.061Z,7.80
2022-12-26T19:25:39.692Z,7.80
2022-12-26T19:28:09.038Z,7.70
2022-12-26T19:30:39.428Z,7.70
2022-12-26T19:33:06.828Z,7.70
2022-12-26T19:35:37.392Z,7.70
2022-12-26T19:38:04.003Z,7.70
2022-12-26T19:40:30.687Z,7.70
2022-12-26T19:43:05.610Z,7.60
2022-12-26T19:45:36.942Z,7.60
2022-12-26T19:48:09.070Z,7.60
2022-12-26T19:50:38.561Z,7.60
2022-12-26T19:53:05.151Z,7.60
2022-12-26T19:55:35.361Z,7.60
2022-12-26T19:58:01.986Z,7.50
2022-12-26T20:00:29.141Z,7.50
2022-12-26T20:02:55.794Z,7.50
2022-12-26T20:05:22.455Z,7.50
2022-12-26T20:07:50.339Z,7.50
2022-12-26T20:10:19.369Z,7.50
2022-12-26T20:12:48.527Z,7.50
2022-12-26T20:15:15.185Z,7.50
2022-12-26T20:17:41.958Z,7.50
2022-12-26T20:20:11.132Z,7.50
2022-12-26T20:22:40.284Z,7.40
2022-12-26T20:25:12.809Z,7.40
2022-12-26T20:27:48.441Z,7.40
2022-12-26T20:30:17.717Z,7.40
2022-12-26T20:32:47.460Z,7.40
2022-12-26T20:35:14.571Z,7.40
2022-12-26T20:37:41.253Z,7.40
2022-12-26T20:40:14.946Z,7.40
2022-12-26T20:42:48.464Z,7.40
2022-12-26T20:45:18.816Z,7.40
2022-12-26T20:47:47.873Z,7.40
2022-12-26T20:50:16.752Z,7.40
2022-12-26T20:52:45.499Z,7.40
2022-12-26T20:55:15.786Z,7.50
2022-12-26T20:57:42.413Z,7.50
2022-12-26T21:00:17.007Z,7.50
2022-12-26T21:02:43.800Z,7.60
2022-12-26T21:05:13.163Z,7.60
2022-12-26T21:07:40.475Z,7.60
2022-12-26T21:10:21.441Z,7.60
2022-12-26T21:12:48.117Z,7.60
2022-12-26T21:15:17.000Z,7.70
2022-12-26T21:17:47.138Z,7.70
2022-12-26T21:20:17.407Z,7.60
2022-12-26T21:22:44.017Z,7.60
2022-12-26T21:25:10.675Z,7.60
2022-12-26T21:27:40.325Z,7.60
2022-12-26T21:30:10.724Z,7.60
2022-12-26T21:32:39.018Z,7.60
2022-12-26T21:35:08.262Z,7.60
2022-12-26T21:37:53.813Z,7.60
2022-12-26T21:40:25.783Z,7.60
2022-12-26T21:42:52.442Z,7.60
2022-12-26T21:45:19.624Z,7.60
2022-12-26T21:47:49.674Z,7.50
2022-12-26T21:50:17.342Z,7.50
2022-12-26T21:52:53.873Z,7.50
2022-12-26T21:55:26.147Z,7.50
2022-12-26T21:57:53.298Z,7.50
2022-12-26T22:00:21.269Z,7.50
2022-12-26T22:03:11.431Z,7.50
2022-12-26T22:05:40.475Z,7.40
2022-12-26T22:08:11.758Z,7.40
2022-12-26T22:11:05.124Z,7.40
2022-12-26T22:13:39.739Z,7.40
2022-12-26T22:16:11.709Z,7.40
2022-12-26T22:18:45.970Z,7.40
2022-12-26T22:21:22.975Z,7.40
2022-12-26T22:23:53.115Z,7.40
2022-12-26T22:26:24.843Z,7.30
2022-12-26T22:28:51.827Z,7.30
2022-12-26T22:31:24.436Z,7.30
2022-12-26T22:33:56.609Z,7.30
2022-12-26T22:36:23.586Z,7.30
2022-12-26T22:38:51.755Z,7.30
2022-12-26T22:41:18.426Z,7.30
2022-12-26T22:43:50.935Z,7.30
2022-12-26T22:46:23.714Z,7.30
2022-12-26T22:48:50.968Z,7.30
2022-12-26T22:51:25.220Z,7.30
2022-12-26T22:53:59.798Z,7.30
2022-12-26T22:56:32.536Z,7.30
2022-12-26T22:59:03.793Z,7.20
2022-12-26T23:01:32.078Z,7.20
2022-12-26T23:04:00.831Z,7.20
2022-12-26T23:06:35.349Z,7.20
2022-12-26T23:09:04.886Z,7.30
2022-12-26T23:11:35.249Z,7.20
2022-12-26T23:14:08.811Z,7.20
2022-12-26T23:16:55.244Z,7.20
2022-12-26T23:20:01.723Z,7.20
2022-12-26T23:22:31.032Z,7.20
2022-12-26T23:24:58.613Z,7.20
2022-12-26T23:27:46.125Z,7.20
2022-12-26T23:30:19.124Z,7.20
2022-12-26T23:32:53.491Z,7.20
2022-12-26T23:35:22.179Z,7.20
2022-12-26T23:37:49.194Z,7.20
2022-12-26T23:40:18.111Z,7.20
2022-12-26T23:42:45.216Z,7.20
2022-12-26T23:45:15.693Z,7.10
2022-12-26T23:47:45.835Z,7.20
2022-12-26T23:50:13.806Z,7.20
2022-12-26T23:52:45.422Z,7.20
2022-12-26T23:55:13.913Z,7.10
2022-12-26T23:57:42.883Z,7.20
